createdAt,value
2023-01-27T00:00:24.580Z,100281.12
2023-01-27T00:03:52.362Z,100275.98
2023-01-27T00:07:20.105Z,100271.94
2023-01-27T00:10:47.873Z,100273.35
2023-01-27T00:14:16.161Z,100270.64
2023-01-27T00:17:43.962Z,100273.73
2023-01-27T00:21:11.761Z,100274.18
2023-01-27T00:24:39.499Z,100272.45
2023-01-27T00:27:28.024Z,100272.76
2023-01-27T00:30:55.931Z,100275.95
2023-01-27T00:34:23.688Z,100274.55
2023-01-27T00:37:51.608Z,100277.01
2023-01-27T00:41:19.291Z,100279.11
2023-01-27T00:44:28.346Z,100276.23
2023-01-27T00:47:55.981Z,100275.84
2023-01-27T00:51:23.714Z,100275.58
2023-01-27T00:54:51.590Z,100275.38
2023-01-27T00:58:19.382Z,100275.12
2023-01-27T01:01:47.096Z,100274.70
2023-01-27T01:05:14.805Z,100275.46
2023-01-27T01:08:42.570Z,100269.29
2023-01-27T01:11:51.580Z,100265.15
2023-01-27T01:15:19.297Z,100260.17
2023-01-27T01:18:47.236Z,100259.17
2023-01-27T01:22:15.165Z,100254.40
2023-01-27T01:25:42.940Z,100247.45
2023-01-27T01:29:10.533Z,100247.81
2023-01-27T01:32:38.437Z,100243.38
2023-01-27T01:36:06.212Z,100243.35
2023-01-27T01:39:33.851Z,100242.01
2023-01-27T01:43:01.538Z,100244.55
2023-01-27T01:46:29.379Z,100244.14
2023-01-27T01:49:57.103Z,100244.71
2023-01-27T01:53:24.852Z,100240.98
2023-01-27T01:56:52.680Z,100240.61
2023-01-27T02:00:20.330Z,100232.70
2023-01-27T02:03:48.217Z,100224.08
2023-01-27T02:07:16.194Z,100217.87
2023-01-27T02:10:44.055Z,100209.05
2023-01-27T02:14:11.790Z,100202.14
2023-01-27T02:17:39.423Z,100195.56
2023-01-27T02:21:06.872Z,100196.95
2023-01-27T02:24:35.077Z,100192.36
2023-01-27T02:28:02.856Z,100189.52
2023-01-27T02:31:30.679Z,100190.03
2023-01-27T02:34:58.333Z,100182.31
2023-01-27T02:38:25.921Z,100178.51
2023-01-27T02:41:34.647Z,100176.42
2023-01-27T02:45:02.411Z,100175.62
2023-01-27T02:48:30.105Z,100170.16
2023-01-27T02:51:39.053Z,100168.46
2023-01-27T02:55:06.846Z,100161.74
2023-01-27T02:58:34.672Z,100157.37
2023-01-27T03:02:02.521Z,100157.75
2023-01-27T03:05:30.941Z,100153.25
2023-01-27T03:08:58.541Z,100149.17
2023-01-27T03:12:26.413Z,100143.48
2023-01-27T03:15:35.167Z,100137.99
2023-01-27T03:19:02.949Z,100136.73
2023-01-27T03:22:11.685Z,100141.41
2023-01-27T03:25:39.617Z,100138.13
2023-01-27T03:29:07.549Z,100132.45
2023-01-27T03:32:15.420Z,100131.48
2023-01-27T03:35:43.531Z,100124.55
2023-01-27T03:39:11.270Z,100120.08
2023-01-27T03:42:39.281Z,100115.82
2023-01-27T03:46:07.185Z,100118.77
2023-01-27T03:49:34.908Z,100113.35
2023-01-27T03:53:02.631Z,100111.52
2023-01-27T03:56:33.075Z,100113.77
2023-01-27T04:00:00.904Z,100109.35
2023-01-27T04:03:28.903Z,100109.73
2023-01-27T04:06:57.125Z,100108.97
2023-01-27T04:10:24.866Z,100106.64
2023-01-27T04:13:52.848Z,100107.46
2023-01-27T04:17:20.607Z,100111.73
2023-01-27T04:20:48.247Z,100116.40
2023-01-27T04:23:56.465Z,100117.00
2023-01-27T04:26:26.427Z,100112.35
2023-01-27T04:29:34.837Z,100111.02
2023-01-27T04:32:42.985Z,100109.06
2023-01-27T04:36:10.880Z,100112.46
2023-01-27T04:39:38.723Z,100116.20
2023-01-27T04:43:06.468Z,100112.07
2023-01-27T04:46:34.202Z,100111.66
2023-01-27T04:50:02.069Z,100112.44
2023-01-27T04:53:29.769Z,100103.03
2023-01-27T04:56:38.142Z,100108.68
2023-01-27T04:59:46.363Z,100107.64
2023-01-27T05:03:14.265Z,100106.66
2023-01-27T05:06:42.078Z,100105.86
2023-01-27T05:10:10.152Z,100108.71
2023-01-27T05:13:38.216Z,100108.33
2023-01-27T05:17:05.899Z,100103.95
2023-01-27T05:20:33.613Z,100099.61
2023-01-27T05:24:01.500Z,100101.89
2023-01-27T05:27:29.354Z,100107.08
2023-01-27T05:30:57.284Z,100107.46
2023-01-27T05:34:25.445Z,100107.35
2023-01-27T05:37:53.288Z,100104.66
2023-01-27T05:41:21.249Z,100104.42
2023-01-27T05:44:30.175Z,100102.70
2023-01-27T05:47:58.141Z,100102.20
2023-01-27T05:51:06.997Z,100100.10
2023-01-27T05:54:35.001Z,100101.45
2023-01-27T05:58:02.896Z,100099.79
2023-01-27T06:01:31.266Z,100099.61
2023-01-27T06:04:59.120Z,100097.83
2023-01-27T06:08:26.977Z,100100.05
2023-01-27T06:11:35.612Z,100102.45
2023-01-27T06:15:03.880Z,100100.42
2023-01-27T06:17:52.939Z,100104.80
2023-01-27T06:20:41.816Z,100110.42
2023-01-27T06:24:11.372Z,100108.57
2023-01-27T06:27:24.994Z,100111.15
2023-01-27T06:30:36.493Z,100114.16
2023-01-27T06:33:04.320Z,100114.21
2023-01-27T06:35:32.912Z,100117.02
2023-01-27T06:38:06.219Z,100119.20
2023-01-27T06:40:35.089Z,100121.23
2023-01-27T06:43:24.836Z,100121.20
2023-01-27T06:45:58.820Z,100120.62
2023-01-27T06:48:35.845Z,100119.52
2023-01-27T06:51:24.062Z,100126.05
2023-01-27T06:53:53.911Z,100129.73
2023-01-27T06:56:42.574Z,100133.63
2023-01-27T06:59:32.378Z,100134.19
2023-01-27T07:02:40.825Z,100138.42
2023-01-27T07:05:29.565Z,100133.93
2023-01-27T07:08:01.587Z,100133.03
2023-01-27T07:10:58.780Z,100138.73
2023-01-27T07:13:46.770Z,100138.92
2023-01-27T07:16:35.160Z,100135.33
2023-01-27T07:19:24.079Z,100137.43
2023-01-27T07:21:53.619Z,100139.17
2023-01-27T07:24:42.412Z,100138.76
2023-01-27T07:27:11.337Z,100141.65
2023-01-27T07:30:20.056Z,100138.89
2023-01-27T07:33:08.309Z,100139.66
2023-01-27T07:36:35.930Z,100140.71
2023-01-27T07:39:04.312Z,100140.21
2023-01-27T07:42:16.076Z,100144.17
2023-01-27T07:45:04.851Z,100143.16
2023-01-27T07:47:54.090Z,100147.04
2023-01-27T07:50:21.751Z,100147.27
2023-01-27T07:53:33.804Z,100143.92
2023-01-27T07:56:23.381Z,100146.42
2023-01-27T07:59:32.061Z,100148.67
2023-01-27T08:03:00.220Z,100151.56
2023-01-27T08:06:07.773Z,100146.67
2023-01-27T08:08:37.998Z,100150.54
2023-01-27T08:11:26.820Z,100152.58
2023-01-27T08:14:34.531Z,100148.77
2023-01-27T08:17:42.432Z,100149.85
2023-01-27T08:20:32.388Z,100144.44
2023-01-27T08:23:40.711Z,100145.31
2023-01-27T08:26:33.594Z,100143.79
2023-01-27T08:29:23.194Z,100148.80
2023-01-27T08:32:15.238Z,100153.86
2023-01-27T08:35:21.681Z,100150.48
2023-01-27T08:38:29.479Z,100150.66
2023-01-27T08:41:37.330Z,100151.45
2023-01-27T08:44:26.114Z,100154.48
2023-01-27T08:47:34.080Z,100156.57
2023-01-27T08:50:22.506Z,100157.77
2023-01-27T08:53:50.341Z,100162.95
2023-01-27T08:56:59.919Z,100158.70
2023-01-27T09:00:07.814Z,100157.96
2023-01-27T09:03:35.688Z,100161.45
2023-01-27T09:06:23.851Z,100154.84
2023-01-27T09:09:13.644Z,100160.17
2023-01-27T09:11:41.397Z,100160.58
2023-01-27T09:14:40.866Z,100156.54
2023-01-27T09:17:48.809Z,100155.70
2023-01-27T09:20:17.625Z,100154.64
2023-01-27T09:23:45.415Z,100152.88
2023-01-27T09:26:14.019Z,100154.98
2023-01-27T09:29:41.787Z,100152.89
2023-01-27T09:32:50.043Z,100153.13
2023-01-27T09:36:17.581Z,100154.98
2023-01-27T09:38:49.399Z,100151.79
2023-01-27T09:41:57.637Z,100154.59
2023-01-27T09:44:27.844Z,100142.52
2023-01-27T09:46:57.824Z,100141.39
2023-01-27T09:50:23.799Z,100140.48
2023-01-27T09:53:31.739Z,100138.52
2023-01-27T09:56:21.586Z,100135.73
2023-01-27T09:58:50.781Z,100136.83
2023-01-27T10:01:58.554Z,100135.98
2023-01-27T10:04:28.438Z,100135.20
2023-01-27T10:07:16.715Z,100135.45
2023-01-27T10:10:25.948Z,100137.85
2023-01-27T10:12:56.867Z,100131.45
2023-01-27T10:16:04.837Z,100128.56
2023-01-27T10:19:12.596Z,100120.85
2023-01-27T10:21:40.242Z,100119.45
2023-01-27T10:25:07.976Z,100119.55
2023-01-27T10:27:38.511Z,100118.09
2023-01-27T10:30:46.354Z,100118.98
2023-01-27T10:33:24.029Z,100115.05
2023-01-27T10:36:11.872Z,100112.98
2023-01-27T10:39:04.083Z,100108.14
2023-01-27T10:41:32.058Z,100108.81
2023-01-27T10:44:39.852Z,100107.21
2023-01-27T10:47:30.838Z,100103.64
2023-01-27T10:50:38.876Z,100095.04
2023-01-27T10:53:12.574Z,100100.76
2023-01-27T10:56:20.651Z,100102.73
2023-01-27T10:58:50.893Z,100099.80
2023-01-27T11:02:18.644Z,100098.00
2023-01-27T11:05:26.612Z,100100.48
2023-01-27T11:07:54.567Z,100104.17
2023-01-27T11:10:22.447Z,100104.91
2023-01-27T11:13:11.263Z,100093.98
2023-01-27T11:16:19.608Z,100086.77
2023-01-27T11:19:28.642Z,100084.49
2023-01-27T11:22:07.137Z,100075.42
2023-01-27T11:25:24.658Z,100076.45
2023-01-27T11:28:52.727Z,100077.00
2023-01-27T11:31:23.081Z,100081.26
2023-01-27T11:34:51.001Z,100081.17
2023-01-27T11:37:19.442Z,100081.00
2023-01-27T11:40:29.032Z,100081.19
2023-01-27T11:43:01.041Z,100078.30
2023-01-27T11:46:28.800Z,100081.70
2023-01-27T11:49:16.477Z,100086.95
2023-01-27T11:52:04.411Z,100085.23
2023-01-27T11:54:54.711Z,100084.77
2023-01-27T11:58:02.727Z,100076.12
2023-01-27T12:00:31.919Z,100083.14
2023-01-27T12:03:59.847Z,100078.39
2023-01-27T12:07:27.601Z,100079.10
2023-01-27T12:10:16.900Z,100080.73
2023-01-27T12:13:43.401Z,100078.84
2023-01-27T12:16:33.655Z,100077.05
2023-01-27T12:19:41.487Z,100076.24
2023-01-27T12:22:10.923Z,100081.83
2023-01-27T12:25:19.365Z,100078.52
2023-01-27T12:28:47.267Z,100080.77
2023-01-27T12:32:15.143Z,100080.14
2023-01-27T12:35:23.920Z,100077.48
2023-01-27T12:38:51.857Z,100078.41
2023-01-27T12:42:00.703Z,100081.04
2023-01-27T12:45:10.350Z,100074.04
2023-01-27T12:47:39.087Z,100070.13
2023-01-27T12:50:27.102Z,100072.32
2023-01-27T12:53:34.855Z,100069.55
2023-01-27T12:56:44.747Z,100073.25
2023-01-27T12:59:56.373Z,100073.19
2023-01-27T13:02:59.801Z,100068.65
2023-01-27T13:05:48.227Z,100066.66
2023-01-27T13:09:16.043Z,100068.58
2023-01-27T13:12:04.798Z,100063.05
2023-01-27T13:15:13.535Z,100059.43
2023-01-27T13:18:22.301Z,100061.91
2023-01-27T13:21:30.973Z,100059.76
2023-01-27T13:23:59.564Z,100058.48
2023-01-27T13:27:08.236Z,100061.70
2023-01-27T13:29:58.281Z,100069.05
2023-01-27T13:33:06.399Z,100067.94
2023-01-27T13:36:15.996Z,100065.95
2023-01-27T13:38:44.687Z,100066.36
2023-01-27T13:42:12.476Z,100068.77
2023-01-27T13:45:21.560Z,100072.14
2023-01-27T13:48:29.934Z,100076.02
2023-01-27T13:51:39.985Z,100081.66
2023-01-27T13:54:49.709Z,100085.76
2023-01-27T13:57:19.679Z,100089.29
2023-01-27T14:00:27.939Z,100092.40
2023-01-27T14:03:16.827Z,100089.98
2023-01-27T14:06:44.628Z,100089.65
2023-01-27T14:09:13.054Z,100095.67
2023-01-27T14:12:21.628Z,100097.83
2023-01-27T14:15:10.132Z,100104.63
2023-01-27T14:18:18.100Z,100109.67
2023-01-27T14:20:46.223Z,100110.39
2023-01-27T14:23:34.921Z,100116.96
2023-01-27T14:27:02.766Z,100113.30
2023-01-27T14:30:30.542Z,100121.19
2023-01-27T14:33:01.318Z,100120.33
2023-01-27T14:36:10.121Z,100116.17
2023-01-27T14:39:02.898Z,100119.70
2023-01-27T14:41:51.292Z,100120.27
2023-01-27T14:44:44.330Z,100126.71
2023-01-27T14:48:09.962Z,100125.38
2023-01-27T14:50:58.433Z,100127.30
2023-01-27T14:54:26.285Z,100128.29
2023-01-27T14:57:53.919Z,100121.95
2023-01-27T15:01:02.922Z,100125.05
2023-01-27T15:04:30.465Z,100128.28
2023-01-27T15:07:58.580Z,100134.30
2023-01-27T15:10:34.966Z,100136.81
2023-01-27T15:14:02.846Z,100141.20
2023-01-27T15:17:30.890Z,100144.42
2023-01-27T15:20:58.831Z,100143.77
2023-01-27T15:24:26.609Z,100136.91
2023-01-27T15:27:35.554Z,100137.14
2023-01-27T15:31:03.266Z,100135.67
2023-01-27T15:34:31.019Z,100143.02
2023-01-27T15:37:39.388Z,100144.35
2023-01-27T15:40:28.086Z,100145.31
2023-01-27T15:43:55.866Z,100146.41
2023-01-27T15:47:23.720Z,100145.08
2023-01-27T15:50:51.524Z,100139.05
2023-01-27T15:53:59.380Z,100140.00
2023-01-27T15:57:27.280Z,100137.75
2023-01-27T16:00:54.805Z,100138.41
2023-01-27T16:04:22.479Z,100137.48
2023-01-27T16:07:30.208Z,100129.45
2023-01-27T16:10:57.761Z,100133.50
2023-01-27T16:14:25.488Z,100138.33
2023-01-27T16:17:34.003Z,100141.28
2023-01-27T16:20:42.602Z,100142.84
2023-01-27T16:23:51.295Z,100147.03
2023-01-27T16:26:59.867Z,100154.41
2023-01-27T16:30:27.759Z,100158.10
2023-01-27T16:33:55.655Z,100163.33
2023-01-27T16:37:25.968Z,100161.36
2023-01-27T16:40:34.374Z,100165.21
2023-01-27T16:44:01.990Z,100161.83
2023-01-27T16:47:16.748Z,100170.95
2023-01-27T16:50:39.469Z,100163.66
2023-01-27T16:53:51.126Z,100158.45
2023-01-27T16:57:18.924Z,100157.66
2023-01-27T17:00:07.866Z,100154.99
2023-01-27T17:03:16.517Z,100158.86
2023-01-27T17:06:04.566Z,100158.39
2023-01-27T17:09:32.261Z,100161.31
2023-01-27T17:13:00.104Z,100166.44
2023-01-27T17:16:27.943Z,100169.02
2023-01-27T17:19:55.600Z,100169.28
2023-01-27T17:23:23.368Z,100168.83
2023-01-27T17:26:41.835Z,100170.14
2023-01-27T17:29:31.131Z,100167.84
2023-01-27T17:32:25.398Z,100169.00
2023-01-27T17:35:53.268Z,100162.99
2023-01-27T17:39:21.014Z,100166.16
2023-01-27T17:42:29.687Z,100161.96
2023-01-27T17:45:57.449Z,100160.48
2023-01-27T17:49:25.238Z,100164.31
2023-01-27T17:52:53.278Z,100167.81
2023-01-27T17:56:03.426Z,100169.04
2023-01-27T17:59:26.461Z,100173.05
2023-01-27T18:02:54.706Z,100180.31
2023-01-27T18:06:22.352Z,100182.38
2023-01-27T18:09:30.262Z,100189.45
2023-01-27T18:12:45.628Z,100188.39
2023-01-27T18:16:13.339Z,100197.30
2023-01-27T18:19:05.653Z,100198.50
2023-01-27T18:21:54.369Z,100199.27
2023-01-27T18:25:22.289Z,100201.04
2023-01-27T18:28:10.062Z,100202.23
2023-01-27T18:31:18.063Z,100203.84
2023-01-27T18:34:45.569Z,100205.56
2023-01-27T18:37:53.964Z,100204.30
2023-01-27T18:41:02.157Z,100204.24
2023-01-27T18:44:09.787Z,100213.13
2023-01-27T18:47:18.413Z,100212.25
2023-01-27T18:50:46.202Z,100212.17
2023-01-27T18:54:14.058Z,100211.84
2023-01-27T18:57:42.023Z,100213.90
2023-01-27T19:00:50.876Z,100212.58
2023-01-27T19:04:18.809Z,100213.58
2023-01-27T19:07:46.608Z,100214.20
2023-01-27T19:10:35.569Z,100212.54
2023-01-27T19:14:03.771Z,100218.62
2023-01-27T19:17:31.681Z,100220.44
2023-01-27T19:20:40.112Z,100210.79
2023-01-27T19:24:07.721Z,100212.63
2023-01-27T19:26:56.647Z,100211.87
2023-01-27T19:29:45.543Z,100219.72
2023-01-27T19:32:53.481Z,100219.05
2023-01-27T19:35:44.115Z,100221.58
2023-01-27T19:38:54.140Z,100224.02
2023-01-27T19:41:23.658Z,100223.30
2023-01-27T19:44:32.427Z,100227.31
2023-01-27T19:48:00.527Z,100231.30
2023-01-27T19:50:29.087Z,100229.71
2023-01-27T19:53:57.212Z,100229.54
2023-01-27T19:57:25.064Z,100226.44
2023-01-27T20:00:33.803Z,100226.52
2023-01-27T20:04:01.969Z,100226.25
2023-01-27T20:06:52.431Z,100233.45
2023-01-27T20:10:00.536Z,100233.91
2023-01-27T20:13:28.287Z,100234.76
2023-01-27T20:16:37.061Z,100234.63
2023-01-27T20:20:04.702Z,100232.92
2023-01-27T20:23:13.356Z,100233.61
2023-01-27T20:26:22.579Z,100239.35
2023-01-27T20:29:30.526Z,100246.29
2023-01-27T20:31:59.870Z,100246.23
2023-01-27T20:35:27.568Z,100246.13
2023-01-27T20:38:36.510Z,100248.38
2023-01-27T20:41:44.394Z,100250.82
2023-01-27T20:45:12.414Z,100250.38
2023-01-27T20:48:40.025Z,100248.70
2023-01-27T20:51:48.109Z,100251.15
2023-01-27T20:55:16.981Z,100254.29
2023-01-27T20:58:44.403Z,100250.02
2023-01-27T21:01:53.072Z,100246.48
2023-01-27T21:05:01.110Z,100248.83
2023-01-27T21:08:10.275Z,100250.23
2023-01-27T21:11:18.411Z,100249.46
2023-01-27T21:14:26.483Z,100251.25
2023-01-27T21:17:17.297Z,100252.30
2023-01-27T21:20:06.584Z,100245.75
2023-01-27T21:22:54.814Z,100250.48
2023-01-27T21:26:04.880Z,100253.36
2023-01-27T21:28:54.657Z,100256.09
2023-01-27T21:31:25.739Z,100255.84
2023-01-27T21:34:53.361Z,100256.17
2023-01-27T21:38:20.941Z,100254.45
2023-01-27T21:41:48.888Z,100247.62
2023-01-27T21:44:37.010Z,100249.23
2023-01-27T21:47:45.676Z,100248.29
2023-01-27T21:50:54.490Z,100248.94
2023-01-27T21:53:43.016Z,100249.85
2023-01-27T21:56:32.180Z,100252.56
2023-01-27T21:59:59.788Z,100253.30
2023-01-27T22:02:48.227Z,100253.67
2023-01-27T22:05:36.647Z,100253.04
2023-01-27T22:09:04.429Z,100254.65
2023-01-27T22:12:12.309Z,100250.97
2023-01-27T22:15:21.020Z,100254.80
2023-01-27T22:18:48.948Z,100255.63
2023-01-27T22:21:56.835Z,100258.13
2023-01-27T22:24:45.427Z,100254.44
2023-01-27T22:28:13.284Z,100252.79
2023-01-27T22:31:01.229Z,100251.52
2023-01-27T22:34:09.170Z,100251.05
2023-01-27T22:37:36.879Z,100249.95
2023-01-27T22:41:04.629Z,100248.98
2023-01-27T22:44:32.469Z,100247.71
2023-01-27T22:47:20.972Z,100246.70
2023-01-27T22:50:29.573Z,100244.48
2023-01-27T22:53:39.400Z,100244.81
2023-01-27T22:57:07.318Z,100247.77
2023-01-27T22:59:56.223Z,100246.45
2023-01-27T23:03:23.937Z,100249.60
2023-01-27T23:06:51.542Z,100249.73
2023-01-27T23:10:19.474Z,100248.09
2023-01-27T23:13:27.558Z,100245.52
2023-01-27T23:16:55.413Z,100247.05
2023-01-27T23:19:44.133Z,100251.00
2023-01-27T23:22:52.178Z,100246.50
2023-01-27T23:26:20.008Z,100248.92
2023-01-27T23:28:47.731Z,100248.46
2023-01-27T23:32:15.507Z,100249.30
2023-01-27T23:35:43.264Z,100252.52
2023-01-27T23:39:11.152Z,100253.08
2023-01-27T23:42:00.108Z,100251.89
2023-01-27T23:45:09.981Z,100252.46
2023-01-27T23:47:59.524Z,100255.10
2023-01-27T23:51:07.251Z,100257.73
2023-01-27T23:53:55.937Z,100256.92
2023-01-27T23:57:23.465Z,100257.70
